Time;durP1;ratioP1;P1;durP2;ratioP2;P2;SDS_P1;SDS_P2;PMS_P1;PMS_P2;Temp;Humidity;BMP_temperature;BMP_pressure;BME280_temperature;BME280_humidity;BME280_pressure;Samples;Min_cycle;Max_cycle;Signal;HPM_P1;HPM_P2
2021/05/30 00:00:52;;;;;;;12.40;8.68;;;;;;;;;;1497578;39;20376;-58
2021/05/30 00:01:54;;;;;;;11.93;8.95;;;;;;;;;;1497592;39;20027;-60
2021/05/30 00:02:55;;;;;;;12.48;9.05;;;;;;;;;;1497304;39;20319;-60
2021/05/30 00:03:57;;;;;;;14.00;9.27;;;;;;;;;;1497622;39;20027;-60
2021/05/30 00:04:58;;;;;;;16.25;8.82;;;;;;;;;;1497593;39;20049;-59
2021/05/30 00:06:00;;;;;;;11.23;8.57;;;;;;;;;;1497403;39;20290;-58
2021/05/30 00:07:02;;;;;;;13.60;8.45;;;;;;;;;;1497335;39;20023;-59
2021/05/30 00:08:04;;;;;;;10.00;8.75;;;;;;;;;;1497337;39;20047;-60
2021/05/30 00:09:05;;;;;;;11.48;7.72;;;;;;;;;;1496765;39;20028;-60
2021/05/30 00:10:08;;;;;;;11.70;8.80;;;;;;;;;;1496967;39;20113;-59
2021/05/30 00:11:11;;;;;;;10.57;8.48;;;;;;;;;;1497393;39;20031;-59
2021/05/30 00:12:12;;;;;;;11.82;8.10;;;;;;;;;;1497403;39;20119;-59
2021/05/30 00:13:14;;;;;;;11.30;8.70;;;;;;;;;;1497075;39;20387;-60
2021/05/30 00:14:15;;;;;;;11.38;8.57;;;;;;;;;;1497288;39;20031;-59
2021/05/30 00:15:17;;;;;;;12.00;8.88;;;;;;;;;;1497470;39;20043;-59
2021/05/30 00:16:18;;;;;;;11.45;8.23;;;;;;;;;;1497388;39;20036;-59
2021/05/30 00:17:19;;;;;;;12.93;9.13;;;;;;;;;;1497475;39;20043;-59
2021/05/30 00:18:21;;;;;;;10.70;8.25;;;;;;;;;;1497301;39;20035;-59
2021/05/30 00:19:21;;;;;;;12.88;8.57;;;;;;;;;;1497281;39;20272;-59
2021/05/30 00:20:24;;;;;;;10.98;8.57;;;;;;;;;;1497362;39;20061;-59
2021/05/30 00:21:24;;;;;;;10.65;8.18;;;;;;;;;;1497278;39;20283;-59
2021/05/30 00:22:26;;;;;;;12.50;8.80;;;;;;;;;;1497422;39;20035;-59
2021/05/30 00:23:26;;;;;;;11.98;8.82;;;;;;;;;;1497224;39;20383;-60
2021/05/30 00:24:28;;;;;;;11.30;8.50;;;;;;;;;;1497516;39;20030;-59
2021/05/30 00:25:32;;;;;;;9.18;7.90;;;;;;;;;;1497231;39;20379;-59
2021/05/30 00:26:34;;;;;;;10.35;8.13;;;;;;;;;;1497432;39;20023;-59
2021/05/30 00:27:35;;;;;;;11.73;7.63;;;;;;;;;;1497470;39;20073;-59
2021/05/30 00:28:36;;;;;;;13.55;8.25;;;;;;;;;;1497490;39;20023;-58
2021/05/30 00:29:37;;;;;;;11.73;8.43;;;;;;;;;;1497378;39;20039;-59
2021/05/30 00:30:38;;;;;;;13.95;7.78;;;;;;;;;;1497248;39;20032;-59
2021/05/30 00:31:40;;;;;;;14.02;8.23;;;;;;;;;;1497124;39;20027;-59
2021/05/30 00:32:41;;;;;;;10.55;7.93;;;;;;;;;;1497615;39;20031;-59
2021/05/30 00:33:42;;;;;;;12.63;8.55;;;;;;;;;;1497420;39;20027;-59
2021/05/30 00:34:43;;;;;;;12.45;8.57;;;;;;;;;;1497342;39;20314;-59
2021/05/30 00:35:45;;;;;;;13.02;8.55;;;;;;;;;;1497280;39;20298;-59
2021/05/30 00:36:47;;;;;;;12.40;8.57;;;;;;;;;;1497560;39;20063;-59
2021/05/30 00:37:48;;;;;;;12.68;8.93;;;;;;;;;;1497407;39;20027;-59
2021/05/30 00:38:49;;;;;;;11.98;8.77;;;;;;;;;;1497230;39;20035;-60
2021/05/30 00:39:50;;;;;;;11.23;8.18;;;;;;;;;;1497469;39;20032;-59
2021/05/30 00:40:52;;;;;;;11.50;8.27;;;;;;;;;;1497485;39;20039;-59
2021/05/30 00:41:53;;;;;;;11.32;7.85;;;;;;;;;;1497311;39;20032;-59
2021/05/30 00:42:54;;;;;;;11.52;7.72;;;;;;;;;;1497435;39;20031;-60
2021/05/30 00:43:55;;;;;;;12.20;8.50;;;;;;;;;;1497218;39;20471;-59
2021/05/30 00:44:56;;;;;;;12.93;8.15;;;;;;;;;;1497268;39;20081;-60
2021/05/30 00:45:57;;;;;;;12.25;8.43;;;;;;;;;;1497244;39;20391;-59
2021/05/30 00:47:00;;;;;;;14.38;8.45;;;;;;;;;;1497289;39;20027;-59
2021/05/30 00:48:01;;;;;;;10.95;8.30;;;;;;;;;;1497441;39;20020;-59
2021/05/30 00:49:02;;;;;;;11.82;8.55;;;;;;;;;;1497235;39;20387;-59
2021/05/30 00:50:04;;;;;;;10.13;7.88;;;;;;;;;;1497200;39;20023;-60
2021/05/30 00:51:07;;;;;;;13.23;8.70;;;;;;;;;;1497200;39;20099;-59
2021/05/30 00:52:08;;;;;;;12.80;8.98;;;;;;;;;;1497348;39;20111;-58
2021/05/30 00:53:09;;;;;;;12.45;8.30;;;;;;;;;;1497487;39;20455;-59
2021/05/30 00:54:11;;;;;;;11.15;7.72;;;;;;;;;;1497283;39;20034;-60
2021/05/30 00:55:13;;;;;;;10.52;8.80;;;;;;;;;;1497512;39;20023;-60
2021/05/30 00:56:15;;;;;;;11.20;8.98;;;;;;;;;;1497219;39;20054;-59
2021/05/30 00:57:17;;;;;;;14.18;9.18;;;;;;;;;;1497235;39;20038;-59
2021/05/30 00:58:18;;;;;;;12.32;9.02;;;;;;;;;;1497179;39;20023;-58
2021/05/30 00:59:19;;;;;;;11.73;9.07;;;;;;;;;;1497509;39;20034;-59
2021/05/30 01:00:21;;;;;;;14.10;9.45;;;;;;;;;;1497243;39;20302;-58
2021/05/30 01:01:22;;;;;;;13.93;9.73;;;;;;;;;;1497257;39;20039;-59
2021/05/30 01:02:23;;;;;;;14.32;9.18;;;;;;;;;;1497175;39;20031;-59
2021/05/30 01:03:24;;;;;;;12.23;9.05;;;;;;;;;;1497419;39;20027;-59
2021/05/30 01:04:25;;;;;;;11.45;8.80;;;;;;;;;;1497237;39;20406;-59
2021/05/30 01:05:27;;;;;;;15.60;9.77;;;;;;;;;;1497343;39;20061;-59
2021/05/30 01:06:29;;;;;;;14.52;9.40;;;;;;;;;;1497321;39;20284;-59
2021/05/30 01:07:33;;;;;;;15.05;9.18;;;;;;;;;;1496657;39;20334;-59
2021/05/30 01:08:34;;;;;;;12.00;9.18;;;;;;;;;;1496844;39;20034;-59
2021/05/30 01:09:35;;;;;;;15.50;9.48;;;;;;;;;;1497407;39;20036;-59
2021/05/30 01:10:43;;;;;;;11.90;8.98;;;;;;;;;;1496677;39;20027;-60
2021/05/30 01:11:46;;;;;;;15.15;9.00;;;;;;;;;;1496742;39;20023;-59
2021/05/30 01:12:48;;;;;;;11.85;9.02;;;;;;;;;;1497227;39;20499;-59
2021/05/30 01:13:53;;;;;;;13.18;9.13;;;;;;;;;;1497485;39;20035;-58
2021/05/30 01:14:54;;;;;;;12.55;9.55;;;;;;;;;;1497196;39;20027;-58
2021/05/30 01:15:55;;;;;;;14.07;9.82;;;;;;;;;;1497507;39;20101;-59
2021/05/30 01:16:58;;;;;;;14.30;9.43;;;;;;;;;;1497157;39;20107;-59
2021/05/30 01:17:58;;;;;;;12.68;9.48;;;;;;;;;;1497387;39;20035;-58
2021/05/30 01:19:00;;;;;;;11.93;9.15;;;;;;;;;;1497210;39;20302;-58
2021/05/30 01:20:03;;;;;;;13.20;9.27;;;;;;;;;;1497317;39;20093;-59
2021/05/30 01:21:04;;;;;;;11.18;8.95;;;;;;;;;;1497383;39;20039;-59
2021/05/30 01:22:08;;;;;;;14.23;9.45;;;;;;;;;;1497238;39;20039;-58
2021/05/30 01:23:13;;;;;;;13.95;10.00;;;;;;;;;;1497377;39;20027;-59
2021/05/30 01:24:15;;;;;;;11.90;9.27;;;;;;;;;;1496918;39;20023;-59
2021/05/30 01:25:18;;;;;;;11.85;8.95;;;;;;;;;;1497118;39;20028;-59
2021/05/30 01:26:19;;;;;;;15.05;9.98;;;;;;;;;;1497116;39;20024;-59
2021/05/30 01:27:20;;;;;;;14.07;9.50;;;;;;;;;;1497196;39;20039;-59
2021/05/30 01:28:21;;;;;;;12.35;8.98;;;;;;;;;;1497345;39;20034;-60
2021/05/30 01:29:22;;;;;;;14.55;10.32;;;;;;;;;;1497233;39;20406;-58
2021/05/30 01:30:24;;;;;;;14.55;10.25;;;;;;;;;;1497272;39;20027;-58
2021/05/30 01:31:25;;;;;;;16.25;10.27;;;;;;;;;;1497129;39;20427;-60
2021/05/30 01:32:26;;;;;;;12.43;9.18;;;;;;;;;;1497157;39;20417;-58
2021/05/30 01:33:27;;;;;;;14.70;9.35;;;;;;;;;;1497334;39;20023;-58
2021/05/30 01:34:28;;;;;;;13.85;9.07;;;;;;;;;;1497086;39;20376;-59
2021/05/30 01:35:30;;;;;;;12.77;9.18;;;;;;;;;;1497173;39;20031;-58
2021/05/30 01:36:31;;;;;;;11.02;9.30;;;;;;;;;;1497151;39;20031;-59
2021/05/30 01:37:33;;;;;;;15.15;9.50;;;;;;;;;;1497371;39;20034;-59
2021/05/30 01:38:35;;;;;;;13.10;9.27;;;;;;;;;;1497222;39;20120;-58
2021/05/30 01:39:36;;;;;;;13.65;9.63;;;;;;;;;;1497084;39;20031;-59
2021/05/30 01:40:37;;;;;;;14.93;9.90;;;;;;;;;;1497240;39;20023;-59
2021/05/30 01:41:39;;;;;;;11.63;9.48;;;;;;;;;;1497281;39;20027;-60
2021/05/30 01:42:40;;;;;;;13.82;9.93;;;;;;;;;;1497086;39;20028;-58
2021/05/30 01:43:41;;;;;;;14.02;10.18;;;;;;;;;;1497257;39;20384;-58
2021/05/30 01:44:42;;;;;;;12.98;9.48;;;;;;;;;;1496623;39;20060;-58
2021/05/30 01:45:44;;;;;;;12.73;9.70;;;;;;;;;;1496650;39;20353;-59
2021/05/30 01:46:44;;;;;;;11.70;9.02;;;;;;;;;;1497058;39;20024;-59
2021/05/30 01:47:46;;;;;;;12.35;8.52;;;;;;;;;;1497326;39;20036;-59
2021/05/30 01:48:47;;;;;;;12.40;9.35;;;;;;;;;;1497363;39;20038;-60
2021/05/30 01:49:49;;;;;;;16.48;9.18;;;;;;;;;;1497416;39;20038;-59
2021/05/30 01:50:49;;;;;;;13.38;9.68;;;;;;;;;;1496523;39;20053;-58
2021/05/30 01:51:51;;;;;;;12.23;8.57;;;;;;;;;;1496645;39;20057;-58
2021/05/30 01:52:52;;;;;;;13.55;9.65;;;;;;;;;;1497145;39;20034;-59
2021/05/30 01:54:03;;;;;;;12.50;9.25;;;;;;;;;;1497251;39;20383;-59
2021/05/30 01:55:08;;;;;;;11.52;8.93;;;;;;;;;;1497016;39;20039;-59
2021/05/30 01:57:44;;;;;;;11.50;8.40;;;;;;;;;;1487995;40;20032;-59
2021/05/30 01:58:45;;;;;;;14.13;9.00;;;;;;;;;;1488114;40;20028;-60
2021/05/30 01:59:46;;;;;;;14.38;8.73;;;;;;;;;;1488812;39;20068;-60
2021/05/30 02:00:49;;;;;;;13.93;9.95;;;;;;;;;;1497032;39;20108;-59
2021/05/30 02:01:51;;;;;;;12.27;8.82;;;;;;;;;;1497159;39;20112;-58
2021/05/30 02:02:54;;;;;;;11.80;9.10;;;;;;;;;;1497260;39;20034;-57
2021/05/30 02:03:55;;;;;;;13.38;9.20;;;;;;;;;;1497088;39;20028;-59
2021/05/30 02:04:56;;;;;;;12.85;9.20;;;;;;;;;;1497236;39;20031;-59
2021/05/30 02:06:00;;;;;;;13.75;9.15;;;;;;;;;;1497095;39;20406;-58
2021/05/30 02:07:02;;;;;;;16.00;9.70;;;;;;;;;;1497401;39;20039;-59
2021/05/30 02:08:08;;;;;;;11.73;9.88;;;;;;;;;;1497359;39;20073;-58
2021/05/30 02:09:10;;;;;;;13.73;8.45;;;;;;;;;;1496988;39;20030;-59
2021/05/30 02:10:13;;;;;;;10.45;8.50;;;;;;;;;;1497049;39;20356;-58
2021/05/30 02:11:16;;;;;;;14.85;8.75;;;;;;;;;;1496963;39;20276;-58
2021/05/30 02:12:19;;;;;;;16.40;8.82;;;;;;;;;;1497095;39;20035;-59
2021/05/30 02:13:21;;;;;;;13.05;9.25;;;;;;;;;;1497093;39;20027;-58
2021/05/30 02:14:22;;;;;;;13.18;8.90;;;;;;;;;;1497523;39;20039;-58
2021/05/30 02:15:23;;;;;;;10.40;8.00;;;;;;;;;;1497131;39;20057;-58
2021/05/30 02:16:25;;;;;;;13.45;9.15;;;;;;;;;;1497276;39;20035;-58
2021/05/30 02:17:26;;;;;;;12.85;8.88;;;;;;;;;;1496619;39;20024;-59
2021/05/30 02:18:27;;;;;;;12.95;8.90;;;;;;;;;;1492422;39;20031;-58
2021/05/30 02:19:29;;;;;;;12.05;8.88;;;;;;;;;;1496497;39;20272;-59
2021/05/30 02:20:31;;;;;;;12.15;8.35;;;;;;;;;;1496985;39;20314;-58
2021/05/30 02:21:41;;;;;;;11.32;8.57;;;;;;;;;;1497018;39;20405;-59
2021/05/30 02:22:42;;;;;;;12.48;8.65;;;;;;;;;;1497173;39;20035;-59
2021/05/30 02:23:43;;;;;;;11.63;8.23;;;;;;;;;;1497036;39;20027;-59
2021/05/30 02:24:45;;;;;;;12.18;7.82;;;;;;;;;;1496924;39;20031;-57
2021/05/30 02:25:47;;;;;;;11.00;8.18;;;;;;;;;;1497046;39;20019;-59
2021/05/30 02:26:48;;;;;;;11.80;8.23;;;;;;;;;;1496953;39;20030;-59
2021/05/30 02:27:51;;;;;;;11.23;8.15;;;;;;;;;;1496481;39;20386;-59
2021/05/30 02:28:52;;;;;;;11.63;7.95;;;;;;;;;;1496697;39;20028;-59
2021/05/30 02:29:53;;;;;;;11.63;8.48;;;;;;;;;;1496921;39;20417;-59
2021/05/30 02:30:54;;;;;;;10.35;8.15;;;;;;;;;;1497010;39;20028;-59
2021/05/30 02:31:55;;;;;;;14.45;8.75;;;;;;;;;;1497157;39;20028;-59
2021/05/30 02:32:57;;;;;;;11.38;8.25;;;;;;;;;;1496898;39;20032;-59
2021/05/30 02:33:59;;;;;;;10.90;8.10;;;;;;;;;;1497074;39;20032;-58
2021/05/30 02:34:59;;;;;;;12.63;8.65;;;;;;;;;;1497070;39;20035;-57
2021/05/30 02:36:01;;;;;;;10.93;8.48;;;;;;;;;;1497365;39;20028;-59
2021/05/30 02:37:02;;;;;;;13.43;8.75;;;;;;;;;;1497574;39;20031;-59
2021/05/30 02:38:04;;;;;;;10.25;8.30;;;;;;;;;;1497723;39;20075;-59
2021/05/30 02:39:05;;;;;;;13.45;8.68;;;;;;;;;;1497111;39;20035;-58
2021/05/30 02:40:08;;;;;;;13.65;8.32;;;;;;;;;;1497303;39;20038;-59
2021/05/30 02:41:09;;;;;;;12.68;8.68;;;;;;;;;;1497497;39;20030;-58
2021/05/30 02:42:10;;;;;;;9.32;7.70;;;;;;;;;;1497583;39;20406;-61
2021/05/30 02:43:11;;;;;;;10.52;8.32;;;;;;;;;;1497517;39;20043;-59
2021/05/30 02:44:13;;;;;;;13.23;8.13;;;;;;;;;;1497788;39;20031;-59
2021/05/30 02:45:14;;;;;;;10.50;7.90;;;;;;;;;;1497492;39;20023;-59
2021/05/30 02:46:15;;;;;;;12.95;8.70;;;;;;;;;;1497825;39;20027;-59
2021/05/30 02:47:16;;;;;;;11.30;8.30;;;;;;;;;;1497700;39;20027;-59
2021/05/30 02:48:17;;;;;;;11.57;8.25;;;;;;;;;;1497754;39;20033;-58
2021/05/30 02:49:18;;;;;;;10.95;8.50;;;;;;;;;;1497720;39;20032;-58
2021/05/30 02:50:20;;;;;;;12.65;8.43;;;;;;;;;;1497568;39;20290;-59
2021/05/30 02:51:20;;;;;;;12.27;8.18;;;;;;;;;;1497709;39;20027;-59
2021/05/30 02:52:22;;;;;;;11.73;8.75;;;;;;;;;;1497694;39;20302;-58
2021/05/30 02:53:23;;;;;;;12.65;8.25;;;;;;;;;;1497747;39;20138;-58
2021/05/30 02:54:24;;;;;;;9.30;7.38;;;;;;;;;;1497652;39;20124;-58
2021/05/30 02:55:26;;;;;;;11.73;8.45;;;;;;;;;;1497576;39;20286;-58
2021/05/30 02:56:28;;;;;;;13.13;8.50;;;;;;;;;;1497731;39;20133;-59
2021/05/30 02:57:29;;;;;;;13.50;8.20;;;;;;;;;;1497670;39;20024;-59
2021/05/30 02:58:31;;;;;;;11.52;8.73;;;;;;;;;;1497581;39;20402;-58
2021/05/30 02:59:32;;;;;;;9.88;7.72;;;;;;;;;;1497664;39;20034;-56
2021/05/30 03:00:33;;;;;;;8.98;7.50;;;;;;;;;;1497739;39;20402;-59
2021/05/30 03:01:34;;;;;;;13.45;8.43;;;;;;;;;;1497491;39;20034;-59
2021/05/30 03:02:36;;;;;;;10.52;7.88;;;;;;;;;;1497600;39;20024;-59
2021/05/30 03:03:36;;;;;;;9.85;7.60;;;;;;;;;;1497674;39;20056;-58
2021/05/30 03:04:38;;;;;;;10.85;8.55;;;;;;;;;;1497710;39;20294;-58
2021/05/30 03:05:39;;;;;;;10.43;7.78;;;;;;;;;;1497614;39;20027;-59
2021/05/30 03:06:40;;;;;;;11.52;7.75;;;;;;;;;;1497738;39;20048;-59
2021/05/30 03:07:43;;;;;;;10.20;7.80;;;;;;;;;;1497700;39;20027;-58
2021/05/30 03:08:43;;;;;;;11.13;7.65;;;;;;;;;;1497445;39;20326;-59
2021/05/30 03:09:45;;;;;;;10.45;7.65;;;;;;;;;;1497548;39;20035;-57
2021/05/30 03:10:46;;;;;;;12.23;8.20;;;;;;;;;;1497677;39;20054;-58
2021/05/30 03:11:48;;;;;;;10.70;8.05;;;;;;;;;;1497618;39;20038;-58
2021/05/30 03:12:48;;;;;;;9.50;7.78;;;;;;;;;;1497432;39;20406;-59
2021/05/30 03:13:50;;;;;;;12.45;8.48;;;;;;;;;;1497559;39;20038;-59
2021/05/30 03:14:51;;;;;;;12.68;8.45;;;;;;;;;;1497653;39;20027;-58
2021/05/30 03:15:52;;;;;;;10.48;7.97;;;;;;;;;;1497476;39;20050;-58
2021/05/30 03:16:53;;;;;;;10.52;7.95;;;;;;;;;;1497589;39;20035;-58
2021/05/30 03:17:54;;;;;;;9.05;7.28;;;;;;;;;;1497453;39;20031;-58
2021/05/30 03:18:55;;;;;;;12.35;7.55;;;;;;;;;;1497726;39;20030;-58
2021/05/30 03:19:56;;;;;;;10.98;7.93;;;;;;;;;;1497564;39;20330;-58
2021/05/30 03:20:57;;;;;;;10.73;8.00;;;;;;;;;;1497667;39;20031;-58
2021/05/30 03:21:58;;;;;;;10.68;7.28;;;;;;;;;;1497639;39;20038;-57
2021/05/30 03:22:59;;;;;;;12.43;8.07;;;;;;;;;;1497448;39;20290;-59
2021/05/30 03:24:03;;;;;;;11.63;7.30;;;;;;;;;;1497409;39;20035;-56
2021/05/30 03:25:05;;;;;;;10.80;7.57;;;;;;;;;;1497378;39;20031;-55
2021/05/30 03:26:07;;;;;;;10.88;7.55;;;;;;;;;;1497694;39;20031;-58
2021/05/30 03:27:08;;;;;;;11.68;8.25;;;;;;;;;;1497440;39;20294;-59
2021/05/30 03:28:09;;;;;;;10.70;7.82;;;;;;;;;;1497513;39;20028;-59
2021/05/30 03:29:10;;;;;;;13.23;8.57;;;;;;;;;;1497477;39;20403;-58
2021/05/30 03:30:13;;;;;;;10.38;7.68;;;;;;;;;;1497394;39;20023;-55
2021/05/30 03:31:15;;;;;;;11.35;8.27;;;;;;;;;;1497220;39;20088;-59
2021/05/30 03:32:16;;;;;;;10.82;7.50;;;;;;;;;;1497261;39;20039;-59
2021/05/30 03:33:17;;;;;;;10.65;8.45;;;;;;;;;;1497592;39;20023;-58
2021/05/30 03:34:18;;;;;;;9.32;7.63;;;;;;;;;;1497494;39;20325;-58
2021/05/30 03:35:19;;;;;;;11.30;7.53;;;;;;;;;;1497426;39;20310;-58
2021/05/30 03:36:23;;;;;;;9.88;7.18;;;;;;;;;;1497446;39;20027;-59
2021/05/30 03:37:25;;;;;;;9.13;7.20;;;;;;;;;;1497441;39;20287;-59
2021/05/30 03:38:28;;;;;;;10.77;7.63;;;;;;;;;;1496930;39;20032;-59
2021/05/30 03:39:31;;;;;;;8.88;6.72;;;;;;;;;;1496826;39;20450;-59
2021/05/30 03:40:35;;;;;;;11.40;7.50;;;;;;;;;;1497376;39;20032;-58
2021/05/30 03:41:40;;;;;;;10.02;6.97;;;;;;;;;;1497431;39;20086;-59
2021/05/30 03:42:47;;;;;;;10.73;8.13;;;;;;;;;;1497634;39;20027;-58
2021/05/30 03:43:49;;;;;;;10.00;7.45;;;;;;;;;;1497611;39;20024;-58
2021/05/30 03:44:50;;;;;;;10.68;7.68;;;;;;;;;;1497450;39;20084;-58
2021/05/30 03:45:51;;;;;;;11.52;7.50;;;;;;;;;;1497416;39;20038;-59
2021/05/30 03:46:52;;;;;;;11.05;7.35;;;;;;;;;;1497406;39;20283;-59
2021/05/30 03:47:53;;;;;;;11.70;8.05;;;;;;;;;;1496946;39;20024;-59
2021/05/30 03:48:54;;;;;;;11.48;8.18;;;;;;;;;;1497355;39;20031;-58
2021/05/30 03:49:55;;;;;;;11.20;7.90;;;;;;;;;;1497506;39;20030;-59
2021/05/30 03:50:56;;;;;;;12.88;8.35;;;;;;;;;;1497499;39;20059;-58
2021/05/30 03:51:58;;;;;;;10.48;7.40;;;;;;;;;;1497560;39;20078;-59
2021/05/30 03:52:58;;;;;;;10.35;7.65;;;;;;;;;;1497510;39;20036;-59
2021/05/30 03:54:00;;;;;;;11.45;7.93;;;;;;;;;;1497371;39;20032;-59
2021/05/30 03:55:01;;;;;;;11.73;8.07;;;;;;;;;;1497392;39;20034;-59
2021/05/30 03:56:02;;;;;;;10.00;8.25;;;;;;;;;;1497572;39;20031;-59
2021/05/30 03:57:04;;;;;;;10.73;7.32;;;;;;;;;;1497536;39;20104;-59
2021/05/30 03:58:06;;;;;;;10.05;7.50;;;;;;;;;;1497436;39;20398;-59
2021/05/30 03:59:06;;;;;;;11.02;7.80;;;;;;;;;;1497014;39;20027;-58
2021/05/30 04:00:10;;;;;;;11.35;7.90;;;;;;;;;;1496971;39;20028;-58
2021/05/30 04:01:12;;;;;;;12.57;8.07;;;;;;;;;;1497300;39;20035;-59
2021/05/30 04:02:13;;;;;;;11.50;7.45;;;;;;;;;;1497638;39;20031;-59
2021/05/30 04:03:14;;;;;;;11.68;7.88;;;;;;;;;;1497330;39;20089;-58
2021/05/30 04:04:15;;;;;;;14.40;8.10;;;;;;;;;;1497404;39;20109;-59
2021/05/30 04:05:16;;;;;;;9.20;7.20;;;;;;;;;;1497352;39;20024;-59
2021/05/30 04:06:18;;;;;;;13.13;7.80;;;;;;;;;;1497441;39;20387;-59
2021/05/30 04:07:18;;;;;;;10.07;7.40;;;;;;;;;;1497258;39;20085;-59
2021/05/30 04:08:20;;;;;;;14.15;7.93;;;;;;;;;;1497379;39;20383;-58
2021/05/30 04:09:21;;;;;;;8.82;7.07;;;;;;;;;;1497293;39;20027;-59
2021/05/30 04:10:22;;;;;;;11.40;7.40;;;;;;;;;;1497589;39;20028;-59
2021/05/30 04:11:23;;;;;;;9.30;7.30;;;;;;;;;;1497569;39;20028;-59
2021/05/30 04:12:25;;;;;;;10.82;7.28;;;;;;;;;;1497542;39;20306;-59
2021/05/30 04:13:26;;;;;;;11.13;7.78;;;;;;;;;;1497354;39;20034;-58
2021/05/30 04:14:27;;;;;;;10.35;7.90;;;;;;;;;;1497315;39;20027;-59
2021/05/30 04:15:28;;;;;;;12.43;8.07;;;;;;;;;;1497370;39;20028;-59
2021/05/30 04:16:30;;;;;;;12.63;8.35;;;;;;;;;;1497465;39;20402;-59
2021/05/30 04:17:30;;;;;;;12.07;8.18;;;;;;;;;;1497311;39;20111;-59
2021/05/30 04:18:32;;;;;;;10.52;7.78;;;;;;;;;;1497533;39;20108;-59
2021/05/30 04:19:34;;;;;;;11.32;8.30;;;;;;;;;;1497339;39;20036;-58
2021/05/30 04:20:35;;;;;;;11.90;7.75;;;;;;;;;;1497481;39;20027;-59
2021/05/30 04:21:36;;;;;;;11.40;7.93;;;;;;;;;;1497339;39;20417;-59
2021/05/30 04:22:37;;;;;;;11.80;7.55;;;;;;;;;;1497471;39;20031;-59
2021/05/30 04:23:39;;;;;;;10.00;7.47;;;;;;;;;;1497447;39;20031;-59
2021/05/30 04:24:39;;;;;;;12.60;8.25;;;;;;;;;;1497245;39;20401;-59
2021/05/30 04:25:41;;;;;;;10.60;7.47;;;;;;;;;;1497552;39;20032;-59
2021/05/30 04:26:42;;;;;;;13.13;7.97;;;;;;;;;;1497460;39;20031;-59
2021/05/30 04:27:46;;;;;;;10.43;7.88;;;;;;;;;;1497581;39;20295;-59
2021/05/30 04:28:46;;;;;;;10.32;6.97;;;;;;;;;;1497248;39;20298;-59
2021/05/30 04:29:48;;;;;;;12.23;8.25;;;;;;;;;;1497586;39;20027;-60
2021/05/30 04:30:49;;;;;;;9.65;7.18;;;;;;;;;;1497427;39;20024;-58
2021/05/30 04:31:50;;;;;;;11.52;7.78;;;;;;;;;;1497495;39;20031;-58
2021/05/30 04:32:51;;;;;;;11.85;7.55;;;;;;;;;;1497356;39;20407;-59
2021/05/30 04:33:52;;;;;;;10.45;7.97;;;;;;;;;;1497364;39;20040;-59
2021/05/30 04:34:53;;;;;;;13.27;8.70;;;;;;;;;;1497435;39;20039;-56
2021/05/30 04:35:54;;;;;;;12.88;8.15;;;;;;;;;;1497343;39;20027;-59
2021/05/30 04:36:55;;;;;;;12.05;8.02;;;;;;;;;;1497242;39;20031;-58
2021/05/30 04:37:57;;;;;;;11.40;7.65;;;;;;;;;;1497545;39;20032;-59
2021/05/30 04:38:57;;;;;;;12.07;8.13;;;;;;;;;;1497455;39;20024;-58
2021/05/30 04:39:59;;;;;;;13.02;8.57;;;;;;;;;;1497219;39;20031;-58
2021/05/30 04:41:00;;;;;;;13.05;8.68;;;;;;;;;;1497504;39;20027;-57
2021/05/30 04:42:03;;;;;;;10.35;7.38;;;;;;;;;;1497445;39;20047;-58
2021/05/30 04:43:04;;;;;;;9.82;7.78;;;;;;;;;;1497256;39;20031;-58
2021/05/30 04:44:06;;;;;;;9.95;7.53;;;;;;;;;;1497360;39;20352;-59
2021/05/30 04:45:08;;;;;;;11.30;7.93;;;;;;;;;;1497393;39;20111;-59
2021/05/30 04:46:09;;;;;;;12.27;7.72;;;;;;;;;;1497385;39;20035;-59
2021/05/30 04:47:10;;;;;;;10.65;7.70;;;;;;;;;;1497396;39;20027;-58
2021/05/30 04:48:11;;;;;;;12.13;8.05;;;;;;;;;;1497315;39;20039;-58
2021/05/30 04:49:12;;;;;;;13.57;8.23;;;;;;;;;;1497270;39;20096;-59
2021/05/30 04:50:14;;;;;;;13.93;8.50;;;;;;;;;;1497279;39;20078;-59
2021/05/30 04:51:15;;;;;;;20.85;13.55;;;;;;;;;;1497391;39;20039;-59
2021/05/30 04:52:16;;;;;;;15.13;9.27;;;;;;;;;;1497316;39;20314;-59
2021/05/30 04:53:17;;;;;;;11.27;8.60;;;;;;;;;;1497446;39;20031;-58
2021/05/30 04:54:19;;;;;;;13.95;8.98;;;;;;;;;;1497168;39;20038;-59
2021/05/30 04:55:20;;;;;;;12.00;8.55;;;;;;;;;;1497499;39;20038;-59
2021/05/30 04:56:22;;;;;;;12.50;7.90;;;;;;;;;;1497260;39;20027;-58
2021/05/30 04:57:23;;;;;;;13.13;8.82;;;;;;;;;;1497151;39;20027;-58
2021/05/30 04:58:25;;;;;;;15.15;7.60;;;;;;;;;;1497255;39;20028;-59
2021/05/30 04:59:26;;;;;;;12.60;8.60;;;;;;;;;;1497039;39;20409;-59
2021/05/30 05:00:27;;;;;;;12.80;9.32;;;;;;;;;;1497399;39;20030;-57
2021/05/30 05:01:28;;;;;;;11.00;7.43;;;;;;;;;;1497268;39;20294;-57
2021/05/30 05:02:29;;;;;;;9.63;7.43;;;;;;;;;;1497172;39;20035;-59
2021/05/30 05:03:31;;;;;;;12.65;8.50;;;;;;;;;;1497344;39;20032;-59
2021/05/30 05:04:32;;;;;;;11.63;8.10;;;;;;;;;;1497189;39;20063;-59
2021/05/30 05:05:33;;;;;;;12.70;8.38;;;;;;;;;;1497157;39;20298;-59
2021/05/30 05:06:34;;;;;;;12.27;7.88;;;;;;;;;;1497439;39;20050;-59
2021/05/30 05:07:35;;;;;;;9.90;7.45;;;;;;;;;;1497196;39;20299;-59
2021/05/30 05:08:37;;;;;;;11.48;7.97;;;;;;;;;;1497543;39;20056;-60
2021/05/30 05:09:38;;;;;;;13.85;8.55;;;;;;;;;;1497326;39;20023;-58
2021/05/30 05:10:39;;;;;;;10.60;7.78;;;;;;;;;;1497458;39;20034;-59
2021/05/30 05:11:41;;;;;;;11.57;7.90;;;;;;;;;;1497071;39;20446;-61
2021/05/30 05:12:42;;;;;;;12.25;9.23;;;;;;;;;;1497274;39;20023;-60
2021/05/30 05:13:44;;;;;;;12.30;8.35;;;;;;;;;;1497389;39;20064;-58
2021/05/30 05:14:45;;;;;;;12.15;8.52;;;;;;;;;;1497324;39;20032;-59
2021/05/30 05:15:47;;;;;;;13.68;8.18;;;;;;;;;;1497451;39;20030;-60
2021/05/30 05:16:48;;;;;;;11.10;8.18;;;;;;;;;;1497147;39;20378;-59
2021/05/30 05:17:49;;;;;;;11.18;8.02;;;;;;;;;;1497169;39;20030;-59
2021/05/30 05:18:50;;;;;;;12.20;7.93;;;;;;;;;;1497244;39;20408;-59
2021/05/30 05:19:51;;;;;;;14.25;8.85;;;;;;;;;;1497400;39;20043;-60
2021/05/30 05:20:52;;;;;;;11.38;7.93;;;;;;;;;;1497346;39;20066;-59
2021/05/30 05:21:53;;;;;;;12.95;8.70;;;;;;;;;;1497338;39;20031;-59
2021/05/30 05:22:55;;;;;;;11.35;7.78;;;;;;;;;;1497467;39;20303;-59
2021/05/30 05:23:55;;;;;;;14.27;8.57;;;;;;;;;;1497096;39;20031;-59
2021/05/30 05:24:57;;;;;;;10.52;7.28;;;;;;;;;;1497389;39;20027;-59
2021/05/30 05:26:02;;;;;;;11.07;7.25;;;;;;;;;;1497124;39;20322;-59
2021/05/30 05:27:04;;;;;;;12.95;7.72;;;;;;;;;;1497509;39;20027;-59
2021/05/30 05:28:05;;;;;;;10.43;7.47;;;;;;;;;;1497292;39;20027;-59
2021/05/30 05:29:07;;;;;;;11.18;7.15;;;;;;;;;;1497320;39;20092;-60
2021/05/30 05:30:09;;;;;;;12.02;7.32;;;;;;;;;;1497329;39;20031;-60
2021/05/30 05:31:10;;;;;;;11.15;7.70;;;;;;;;;;1497209;39;20031;-60
2021/05/30 05:32:11;;;;;;;9.50;7.30;;;;;;;;;;1497084;39;20040;-59
2021/05/30 05:33:12;;;;;;;10.23;7.47;;;;;;;;;;1497430;39;20028;-59
2021/05/30 05:34:14;;;;;;;10.90;8.13;;;;;;;;;;1497162;39;20034;-60
2021/05/30 05:35:15;;;;;;;13.18;7.60;;;;;;;;;;1496741;39;20023;-60
2021/05/30 05:36:17;;;;;;;11.63;7.25;;;;;;;;;;1496616;39;20032;-59
2021/05/30 05:37:18;;;;;;;10.93;7.20;;;;;;;;;;1497086;39;20351;-59
2021/05/30 05:38:20;;;;;;;11.32;7.38;;;;;;;;;;1497278;39;20019;-60
2021/05/30 05:39:21;;;;;;;12.85;7.00;;;;;;;;;;1497157;39;20108;-59
2021/05/30 05:40:22;;;;;;;11.13;7.75;;;;;;;;;;1497251;39;20043;-59
2021/05/30 05:41:23;;;;;;;13.38;7.95;;;;;;;;;;1497085;39;20302;-59
2021/05/30 05:42:24;;;;;;;11.63;7.05;;;;;;;;;;1497342;39;20039;-59
2021/05/30 05:43:25;;;;;;;11.02;7.40;;;;;;;;;;1497698;39;20034;-59
2021/05/30 05:44:28;;;;;;;11.95;7.70;;;;;;;;;;1497314;39;20036;-59
2021/05/30 05:45:29;;;;;;;11.13;7.38;;;;;;;;;;1497082;39;20272;-59
2021/05/30 05:46:30;;;;;;;11.05;7.43;;;;;;;;;;1497207;39;20039;-60
2021/05/30 05:47:31;;;;;;;10.38;6.72;;;;;;;;;;1496536;39;20108;-59
2021/05/30 05:48:34;;;;;;;10.10;7.07;;;;;;;;;;1496732;39;20306;-59
2021/05/30 05:49:35;;;;;;;8.88;6.65;;;;;;;;;;1497245;39;20033;-59
2021/05/30 05:50:36;;;;;;;10.30;7.63;;;;;;;;;;1497106;39;20023;-59
2021/05/30 05:51:37;;;;;;;8.57;6.93;;;;;;;;;;1496994;39;20364;-60
2021/05/30 05:52:39;;;;;;;11.32;7.40;;;;;;;;;;1497130;39;20035;-59
2021/05/30 05:53:40;;;;;;;9.07;7.03;;;;;;;;;;1497280;39;20063;-59
2021/05/30 05:54:41;;;;;;;10.52;7.15;;;;;;;;;;1497158;39;20280;-59
2021/05/30 05:55:42;;;;;;;11.05;7.32;;;;;;;;;;1497272;39;20027;-60
2021/05/30 05:56:43;;;;;;;10.13;7.30;;;;;;;;;;1497018;39;20028;-59
2021/05/30 05:57:47;;;;;;;10.07;6.80;;;;;;;;;;1497299;39;20027;-60
2021/05/30 05:58:48;;;;;;;9.52;6.80;;;;;;;;;;1496518;39;20031;-60
2021/05/30 05:59:50;;;;;;;12.35;7.32;;;;;;;;;;1496543;39;20039;-59
2021/05/30 06:00:51;;;;;;;10.80;6.85;;;;;;;;;;1497110;39;20038;-60
2021/05/30 06:01:53;;;;;;;11.85;7.57;;;;;;;;;;1496990;39;20027;-60
2021/05/30 06:02:54;;;;;;;10.70;7.03;;;;;;;;;;1497376;39;20027;-59
2021/05/30 06:03:55;;;;;;;10.32;7.15;;;;;;;;;;1497134;39;20309;-60
2021/05/30 06:04:57;;;;;;;9.75;6.90;;;;;;;;;;1496990;39;20024;-59
2021/05/30 06:05:58;;;;;;;10.88;6.50;;;;;;;;;;1497055;39;20036;-62